Tuesday, July 22, 2014
19:38 UTC
  |  Log In   |  Register Free
Airport Search:

Skyway Estates Airport
(60G)

Skyway Estates Airport Diagram
No Airport Diagram Available

FAA data valid effective May 29, 2014 until July 24, 2014 (unless otherwise noted).

 
 
 
 
 
 
 
 
 
 
 
 
 
 

Current Aviation Weather for Skyway Estates Airport (60G)

The most recent METAR observation for KFPK was updated at: 1835 UTC
METAR Summary (Translated METAR)
KFPK
221835Z AUTO 20008KT 10SM SCT100 29/19 A3001 RMK AO2 T02900193
KLAN
(15.8 nm NE from KFPK)
221753Z 23014G20KT 8SM CLR 29/19 A3002 RMK AO2 SLP160 T02940189 10294 20206 56009
TAF Summary (Translated TAF)
KLAN
(15.8 nm NE from KFPK)
221746Z 2218/2318 21011G21KT P6SM SCT060 FM222300 23011G21KT 6SM HZ VCTS BKN060CB FM230500 27011KT 4SM BR BKN050 FM230700 33010G20KT P6SM SCT015 BKN035 FM231500 35011G21KT P6SM BKN040
  Airport Weather Conditions for 60G

Current weather conditions are
not available for 60G


The nearest NOAA weather station
is at FPK, (7.1 nm SW from 60G)
  
 Current Weather at FPK
85° F
Fair
Southwest winds at 12.7 mph
FPK NOAA Radar

Pressure: 30.00 in
Humidity: 54%
Wind: from the Southwest at 12.7 gusting to 17.3 MPH (11 gusting to 15 KT)
Dew Point: 66.7°F
Visibility: 7.00 mi


Airport Weather Forecast for 60G

Translated METAR and TAF for KFPK
Translated METAR for KFPK (1931 UTC 22 July 2014)
found at http://aviationweather.gov/adds/metars/
 
METAR text: KFPK 221915Z AUTO 22009G18KT 10SM CLR 30/19 A3000 RMK AO2 T02960193
Conditions at: KFPK (CHARLOTTE , MI, US) observed 1915 UTC 22 July 2014
Temperature: 29.6°C (85°F)
Dewpoint: 19.3°C (67°F) [RH = 54%]
Pressure (altimeter): 30.00 inches Hg (1016.0 mb)
Winds: from the SW (220 degrees) at 10 MPH (9 knots; 4.7 m/s)
gusting to 21 MPH (18 knots; 9.4 m/s)
Visibility: 10 or more miles (16+ km)
Ceiling: at least 12,000 feet AGL
Clouds: sky clear below 12,000 feet AGL
Weather: automated observation with no human augmentation;
there may or may not be significant weather present at this time
Translated TAF for KFPK

There is no translated TAF available for this airport

Find All Airport Services Find A Hotel Find A Rental Car Find A Golf Course Find A Restaurant $100 Hamburger



FBO's on the Field
FBO Company Facility Photos Services Transportation Aviation Fuel Prices: Prices include tax
Catering Weather Repair Courtesy Rental Type 100LL JetA JetA+ MOGAS 8087
 
Add another FBO Facility Photos Catering Weather Repair Courtesy Rental Type 100LL JetA JetA+ MOGAS 8087
Services Transportation Aviation Fuel Prices: Prices include tax
There are no FBO's currently reporting fuel at 60G. List your FBO now


GlobalAir.com Airport Resource Center model-print
model-print
model-print
model-print